Time;durP1;ratioP1;P1;durP2;ratioP2;P2;SDS_P1;SDS_P2;PMS_P1;PMS_P2;Temp;Humidity;BMP_temperature;BMP_pressure;BME280_temperature;BME280_humidity;BME280_pressure;Samples;Min_cycle;Max_cycle;Signal;HPM_P1;HPM_P2
2021/06/09 00:00:49;;;;;;;22.70;16.08;;;18.50;88.20;;;17.58;84.12;101120.91;4989713;28;20131;-85
2021/06/09 00:03:29;;;;;;;20.20;15.70;;;18.60;88.20;;;17.58;83.84;101120.91;5004305;28;20498;-85
2021/06/09 00:06:07;;;;;;;22.27;16.35;;;18.50;88.10;;;17.57;83.64;101119.22;5009416;28;20049;-85
2021/06/09 00:08:45;;;;;;;21.20;16.60;;;18.50;88.10;;;17.57;83.49;101121.97;5009635;28;20506;-85
2021/06/09 00:11:17;;;;;;;21.17;16.00;;;18.50;88.00;;;17.54;83.50;101114.16;5009191;28;20461;-85
2021/06/09 00:13:53;;;;;;;20.80;15.82;;;18.40;87.90;;;17.50;83.25;101118.41;5006343;28;20053;-84
2021/06/09 00:16:26;;;;;;;21.15;16.10;;;18.50;87.80;;;17.48;83.20;101126.03;5009141;28;20045;-85
2021/06/09 00:19:09;;;;;;;22.98;17.00;;;18.50;87.80;;;17.46;83.25;101122.66;5009392;28;20057;-85
2021/06/09 00:21:48;;;;;;;24.73;15.93;;;18.40;87.60;;;17.44;82.91;101129.41;5009123;28;20046;-85
2021/06/09 00:24:27;;;;;;;19.13;15.77;;;18.40;87.50;;;17.42;82.94;101135.16;5009515;28;20046;-85
2021/06/09 00:27:05;;;;;;;19.33;15.40;;;18.40;87.40;;;17.41;83.06;101130.69;5009150;28;20042;-84
2021/06/09 00:29:43;;;;;;;20.38;16.25;;;18.40;87.50;;;17.39;82.96;101130.91;5007833;28;20053;-85
2021/06/09 00:32:18;;;;;;;19.52;15.15;;;18.30;87.40;;;17.37;82.89;101129.44;5009139;28;20077;-84
2021/06/09 00:35:08;;;;;;;22.05;15.52;;;18.30;87.50;;;17.35;82.68;101129.66;5009019;28;20042;-85
2021/06/09 00:37:43;;;;;;;20.50;15.00;;;18.30;87.50;;;17.31;82.82;101124.78;5009030;28;20065;-85
2021/06/09 00:40:24;;;;;;;19.88;15.10;;;18.30;87.40;;;17.28;82.54;101125.22;5008841;28;20054;-84
2021/06/09 00:46:01;;;;;;;18.38;14.57;;;18.20;87.40;;;17.23;82.46;101125.88;5038351;28;20038;-89
2021/06/09 00:48:39;;;;;;;19.77;15.50;;;18.20;87.30;;;17.22;82.57;101120.56;5009007;28;20481;-88
2021/06/09 00:51:21;;;;;;;18.65;15.05;;;18.10;87.20;;;17.22;82.47;101124.16;5023961;28;20053;-88
2021/06/09 00:54:03;;;;;;;19.52;15.90;;;18.10;87.40;;;17.17;82.31;101116.56;5007514;28;20078;-88
2021/06/09 00:56:41;;;;;;;24.50;16.38;;;18.10;87.40;;;17.14;82.50;101114.22;5008753;28;20096;-89
2021/06/09 00:59:17;;;;;;;19.52;15.82;;;18.00;87.40;;;17.12;82.49;101127.34;5009007;28;20108;-89
2021/06/09 01:01:54;;;;;;;20.77;16.13;;;18.00;87.40;;;17.09;82.76;101116.75;5008677;28;20580;-89
2021/06/09 01:04:30;;;;;;;21.35;16.30;;;18.00;87.50;;;17.07;82.59;101118.88;5008955;28;20069;-89
2021/06/09 01:07:16;;;;;;;21.50;16.25;;;18.00;87.50;;;17.05;82.60;101121.00;5008799;28;20115;-89
2021/06/09 01:09:52;;;;;;;19.48;14.98;;;17.90;87.60;;;17.04;82.50;101108.31;5008536;28;20477;-88
2021/06/09 01:12:28;;;;;;;18.85;15.27;;;17.90;87.50;;;17.00;82.63;101118.03;5008963;28;20482;-88
2021/06/09 01:15:12;;;;;;;20.65;16.27;;;17.90;87.40;;;16.98;82.57;101114.66;5007387;28;20100;-89
2021/06/09 01:17:54;;;;;;;19.73;16.08;;;17.90;87.50;;;16.99;82.88;101110.84;5008752;28;20042;-88
2021/06/09 01:20:33;;;;;;;21.58;16.20;;;17.90;87.80;;;16.96;83.01;101112.16;5007104;28;20065;-88
2021/06/09 01:23:17;;;;;;;22.00;16.30;;;17.90;87.80;;;16.95;82.98;101115.09;5007364;28;20045;-87
2021/06/09 01:25:51;;;;;;;21.45;16.60;;;17.90;87.80;;;16.94;83.02;101107.88;5008645;28;20045;-88
2021/06/09 01:28:27;;;;;;;24.92;17.92;;;17.90;87.90;;;16.93;83.38;101111.72;5008937;28;20034;-89
2021/06/09 01:30:59;;;;;;;23.20;17.83;;;17.80;88.00;;;16.90;83.74;101106.63;5006825;28;20065;-90
2021/06/09 01:33:35;;;;;;;24.20;17.67;;;17.80;88.10;;;16.91;83.94;101108.34;5008665;28;20042;-89
2021/06/09 01:36:14;;;;;;;21.83;17.15;;;17.80;88.30;;;16.89;83.85;101115.94;5007159;28;20410;-88
2021/06/09 01:38:48;;;;;;;25.85;19.00;;;17.80;88.40;;;16.89;84.07;101113.19;5008676;28;20484;-89
2021/06/09 01:41:29;;;;;;;24.50;18.63;;;17.80;88.50;;;16.90;83.90;101118.47;5006857;28;20054;-88
2021/06/09 01:44:05;;;;;;;22.45;17.38;;;17.80;88.60;;;16.90;83.75;101118.47;5023428;28;20053;-89
2021/06/09 01:46:44;;;;;;;20.38;16.17;;;17.80;88.40;;;16.89;83.65;101114.03;5026664;28;20049;-90
2021/06/09 01:49:26;;;;;;;22.73;16.65;;;17.80;88.50;;;16.91;83.72;101120.16;5028347;28;20049;-88
2021/06/09 01:52:01;;;;;;;21.60;16.30;;;17.70;88.50;;;16.85;83.34;101111.91;5028026;28;20048;-88
2021/06/09 01:54:38;;;;;;;20.88;15.65;;;17.70;88.40;;;16.81;83.07;101104.06;5026089;28;20052;-89
2021/06/09 01:57:22;;;;;;;22.25;16.10;;;17.70;88.30;;;16.77;83.26;101113.81;5028154;28;20072;-89
2021/06/09 02:00:01;;;;;;;22.33;16.27;;;17.70;88.30;;;16.75;83.15;101107.66;5026593;28;20053;-88
2021/06/09 02:02:40;;;;;;;20.40;15.65;;;17.70;88.20;;;16.74;83.27;101116.97;5026763;28;20088;-89
2021/06/09 02:05:19;;;;;;;22.35;16.38;;;17.60;88.10;;;16.72;83.17;101110.81;5030100;28;20053;-88
2021/06/09 02:07:55;;;;;;;23.83;17.35;;;17.60;88.10;;;16.71;83.10;101114.63;5031676;28;20041;-89
2021/06/09 02:10:35;;;;;;;23.25;17.17;;;17.60;88.20;;;16.69;83.16;101111.25;5031136;28;20056;-89
2021/06/09 02:13:15;;;;;;;21.67;16.45;;;17.60;88.20;;;16.65;83.01;101109.97;5031700;28;20523;-88
2021/06/09 02:15:54;;;;;;;21.80;17.17;;;17.60;88.10;;;16.63;83.15;101112.09;5031019;28;20045;-88
2021/06/09 02:18:31;;;;;;;26.23;17.35;;;17.60;88.20;;;16.61;83.25;101108.69;5044565;28;20049;-88
2021/06/09 02:21:09;;;;;;;27.70;18.77;;;17.50;88.10;;;16.60;83.44;101107.00;5030758;28;20053;-89
2021/06/09 02:23:47;;;;;;;22.88;17.83;;;17.50;88.40;;;16.56;83.10;101105.72;5031160;28;20037;-89
2021/06/09 02:26:28;;;;;;;21.52;17.83;;;17.50;88.20;;;16.52;82.88;101104.47;5031154;28;20045;-89
2021/06/09 02:29:01;;;;;;;25.80;18.83;;;17.50;88.00;;;16.49;83.44;101100.25;5031230;28;20045;-90
2021/06/09 02:31:36;;;;;;;25.15;18.77;;;17.40;88.00;;;16.47;83.10;101102.34;5046131;28;20115;-89
2021/06/09 02:34:23;;;;;;;27.38;21.17;;;17.50;88.00;;;16.46;83.15;101099.81;5029678;28;20046;-89
2021/06/09 02:37:02;;;;;;;26.92;20.25;;;17.40;88.10;;;16.42;83.30;101093.88;5031050;28;20064;-88
2021/06/09 02:39:40;;;;;;;26.90;19.90;;;17.40;88.10;;;16.44;83.31;101097.25;5030728;28;20053;-89
2021/06/09 02:42:25;;;;;;;26.38;20.02;;;17.40;88.20;;;16.44;83.42;101096.44;5046237;28;20155;-88
2021/06/09 02:45:03;;;;;;;29.60;20.63;;;17.40;88.40;;;16.43;83.43;101103.84;5030858;28;20053;-88
2021/06/09 02:47:41;;;;;;;28.70;20.48;;;17.30;88.50;;;16.44;83.39;101101.94;5030538;28;20084;-89
2021/06/09 02:50:19;;;;;;;28.38;20.63;;;17.30;88.40;;;16.40;83.43;101094.09;5029150;28;20468;-89
2021/06/09 02:53:09;;;;;;;29.85;21.85;;;17.30;88.50;;;16.39;83.48;101103.41;5030894;28;20521;-88
2021/06/09 02:56:09;;;;;;;28.27;21.23;;;17.30;88.60;;;16.37;83.37;101100.03;5030559;28;20045;-89
2021/06/09 02:58:56;;;;;;;29.77;21.65;;;17.30;88.40;;;16.34;83.52;101097.69;5030593;28;20087;-88
2021/06/09 03:01:40;;;;;;;30.92;22.33;;;17.30;88.50;;;16.31;83.64;101109.06;5030138;28;20563;-88
2021/06/09 03:04:22;;;;;;;28.75;22.08;;;17.20;88.50;;;16.32;83.81;101094.28;5030471;28;20045;-89
2021/06/09 03:07:03;;;;;;;28.35;22.58;;;17.20;88.70;;;16.33;83.68;101112.44;5029031;28;20057;-88
2021/06/09 03:09:47;;;;;;;32.13;23.45;;;17.20;88.80;;;16.32;83.66;101105.28;5030152;28;20153;-89
2021/06/09 03:12:35;;;;;;;33.08;22.48;;;17.20;88.70;;;16.31;83.92;101102.75;5030326;28;20048;-88
2021/06/09 03:15:16;;;;;;;35.85;23.00;;;17.20;88.80;;;16.31;83.88;101098.09;5030224;28;20048;-88
2021/06/09 03:17:59;;;;;;;31.73;23.43;;;17.20;88.90;;;16.29;84.11;101105.69;5028775;28;20056;-88
2021/06/09 03:20:49;;;;;;;33.50;23.25;;;17.20;89.20;;;16.30;84.03;101096.41;5030011;28;20037;-89
2021/06/09 03:23:42;;;;;;;29.80;22.73;;;17.20;89.30;;;16.28;84.27;101103.16;5029768;28;20053;-88
2021/06/09 03:26:22;;;;;;;31.35;22.67;;;17.20;89.30;;;16.31;84.39;101098.09;5030276;28;20049;-86
2021/06/09 03:29:06;;;;;;;35.22;23.55;;;17.20;89.40;;;16.31;84.58;101098.09;5029913;28;20057;-84
2021/06/09 03:31:50;;;;;;;30.98;22.27;;;17.20;89.70;;;16.31;84.63;101098.09;5029749;28;20076;-83
2021/06/09 03:34:33;;;;;;;32.67;23.30;;;17.20;89.70;;;16.31;84.69;101087.09;5029735;28;20045;-89
2021/06/09 03:37:06;;;;;;;32.85;23.35;;;17.20;89.70;;;16.29;84.86;101093.88;5029014;28;20045;-88
2021/06/09 03:39:46;;;;;;;31.80;23.63;;;17.20;89.70;;;16.27;84.79;101088.56;5029430;28;20088;-88
2021/06/09 03:42:26;;;;;;;32.15;23.70;;;17.20;89.70;;;16.28;84.93;101092.16;5010021;28;20099;-87
2021/06/09 03:45:06;;;;;;;32.70;23.35;;;17.20;89.80;;;16.25;84.65;101096.19;5009681;28;20053;-89
2021/06/09 03:47:45;;;;;;;32.90;23.90;;;17.20;89.70;;;16.22;84.56;101093.84;5010039;28;20049;-88
2021/06/09 03:50:27;;;;;;;34.67;24.50;;;17.20;89.60;;;16.22;84.33;101091.09;5009933;28;20042;-90
2021/06/09 03:53:03;;;;;;;;;;;17.20;89.50;;;16.25;84.88;101098.09;5009571;28;20065;-90
2021/06/09 03:55:41;;;;;;;31.25;22.63;;;17.10;89.80;;;16.23;84.41;101090.03;5010285;28;19936;-91
2021/06/09 03:58:20;;;;;;;33.10;23.73;;;17.10;89.80;;;16.23;84.73;101096.38;5008983;28;20092;-90
2021/06/09 04:01:01;;;;;;;35.03;24.23;;;17.10;89.80;;;16.23;84.94;101093.63;5008767;28;20104;-88
2021/06/09 04:03:42;;;;;;;35.30;25.02;;;17.20;89.80;;;16.22;85.13;101088.34;5009692;28;20048;-89
2021/06/09 04:06:23;;;;;;;36.67;26.27;;;17.20;90.00;;;16.22;85.19;101091.09;5009705;28;20052;-89
2021/06/09 04:09:02;;;;;;;34.00;24.55;;;17.20;89.90;;;16.23;85.15;101095.53;5024672;28;20705;-89
2021/06/09 04:11:45;;;;;;;33.85;24.48;;;17.20;89.80;;;16.20;85.21;101091.31;5008336;28;20400;-88
2021/06/09 04:14:30;;;;;;;32.80;23.67;;;17.20;89.90;;;16.22;84.94;101088.34;5009509;28;20758;-89
2021/06/09 04:17:10;;;;;;;32.33;22.85;;;17.20;89.90;;;16.20;85.13;101096.81;5008349;28;20518;-88
2021/06/09 04:19:52;;;;;;;30.80;22.75;;;17.10;89.90;;;16.19;85.14;101077.78;5009071;28;20042;-90
2021/06/09 04:22:31;;;;;;;34.65;23.80;;;17.20;89.80;;;16.21;85.11;101087.50;5023370;28;20060;-89
2021/06/09 04:25:09;;;;;;;31.38;23.10;;;17.20;90.00;;;16.23;85.33;101084.56;5028830;28;20049;-89
2021/06/09 04:27:46;;;;;;;30.40;22.17;;;17.20;90.10;;;16.23;85.25;101085.41;5015805;28;20044;-89
2021/06/09 04:30:24;;;;;;;35.50;24.83;;;17.20;90.10;;;16.27;85.57;101085.81;5027340;28;20456;-89
2021/06/09 04:33:02;;;;;;;32.58;23.13;;;17.20;90.30;;;16.29;85.84;101086.47;5031006;28;20508;-88
2021/06/09 04:36:11;;;;;;;28.10;21.67;;;17.20;90.40;;;16.31;85.97;101092.59;5029923;28;20462;-88
2021/06/09 04:38:49;;;;;;;32.90;23.45;;;17.30;90.40;;;16.34;86.07;101086.69;5028372;28;20046;-89
2021/06/09 04:41:28;;;;;;;29.73;22.02;;;17.30;90.40;;;16.39;86.20;101088.78;5028217;28;20084;-89
2021/06/09 04:44:04;;;;;;;30.70;23.15;;;17.40;90.50;;;16.44;86.06;101086.28;5029538;28;20103;-87
2021/06/09 04:46:37;;;;;;;33.05;23.50;;;17.40;90.40;;;16.52;85.90;101087.97;5029704;28;20041;-89
2021/06/09 04:49:14;;;;;;;34.78;24.23;;;17.50;90.30;;;16.58;85.74;101089.88;5028105;28;20053;-89
2021/06/09 04:51:54;;;;;;;31.85;23.83;;;17.50;90.10;;;16.61;86.09;101092.22;5029399;28;20504;-90
2021/06/09 04:54:33;;;;;;;32.25;22.77;;;17.60;90.20;;;16.70;85.55;101093.72;5029824;28;20680;-89
2021/06/09 04:57:12;;;;;;;29.92;21.77;;;17.60;90.00;;;16.78;85.40;101092.66;5030094;28;20134;-89
2021/06/09 04:59:47;;;;;;;30.27;21.75;;;17.70;90.10;;;16.84;85.45;101091.00;5028130;28;20053;-89
2021/06/09 05:02:25;;;;;;;31.98;22.15;;;17.70;90.00;;;16.93;85.24;101084.22;5027418;28;20060;-91
2021/06/09 05:05:03;;;;;;;31.65;22.20;;;17.80;90.00;;;16.98;85.55;101082.53;5030596;28;20041;-88
2021/06/09 05:07:49;;;;;;;29.40;21.83;;;17.90;90.00;;;17.02;85.97;101077.44;5036030;28;20042;-88
2021/06/09 05:10:28;;;;;;;26.15;19.83;;;17.90;90.00;;;17.10;85.97;101079.13;5029881;28;20437;-90
2021/06/09 05:13:18;;;;;;;31.58;21.85;;;18.00;89.90;;;17.13;86.46;101074.00;5030786;28;20083;-91
2021/06/09 05:16:05;;;;;;;30.45;23.73;;;18.10;90.00;;;17.19;85.92;101072.31;5028838;28;20491;-92
2021/06/09 05:18:48;;;;;;;30.52;22.50;;;18.20;89.90;;;17.26;85.77;101078.66;5020994;28;20037;-88
2021/06/09 05:21:32;;;;;;;29.60;21.58;;;18.20;89.50;;;17.32;85.39;101083.28;5027933;28;20052;-89
2021/06/09 05:24:18;;;;;;;30.35;21.42;;;18.30;90.10;;;17.37;85.71;101078.00;5025868;28;20038;-83
2021/06/09 05:26:57;;;;;;;29.65;21.98;;;18.40;90.20;;;17.41;85.70;101081.16;5028069;28;20056;-84
2021/06/09 05:29:34;;;;;;;29.70;21.20;;;18.40;90.00;;;17.46;85.83;101078.63;5027919;28;20049;-82
2021/06/09 05:32:08;;;;;;;33.15;22.95;;;18.50;90.10;;;17.51;86.17;101076.03;5028254;28;20093;-85
2021/06/09 05:34:50;;;;;;;29.80;23.38;;;18.60;90.50;;;17.58;86.56;101076.03;5027952;28;20123;-85
2021/06/09 05:37:25;;;;;;;31.20;23.95;;;18.60;91.20;;;17.64;86.31;101072.41;5028172;28;20103;-84
2021/06/09 05:40:08;;;;;;;32.78;24.17;;;18.70;90.70;;;17.70;86.84;101073.44;5031470;28;20069;-85
2021/06/09 05:42:47;;;;;;;32.45;24.50;;;18.80;90.90;;;17.75;86.63;101084.66;5031980;28;20060;-84
2021/06/09 05:45:36;;;;;;;33.70;23.17;;;18.90;91.00;;;17.83;86.53;101089.91;5031530;28;20041;-84
2021/06/09 05:48:11;;;;;;;36.65;24.45;;;19.00;90.60;;;17.95;86.51;101082.69;5031899;28;20112;-85
2021/06/09 05:50:56;;;;;;;32.13;24.30;;;19.10;90.40;;;18.08;85.95;101080.91;5031375;28;20048;-85
2021/06/09 05:53:35;;;;;;;32.92;24.50;;;19.50;89.00;;;18.25;85.63;101084.81;5031671;28;20414;-84
2021/06/09 05:56:19;;;;;;;32.40;24.65;;;20.00;87.20;;;18.44;85.45;101076.66;5029290;28;20049;-84
2021/06/09 05:58:57;;;;;;;42.25;26.88;;;20.50;85.60;;;18.65;85.68;101079.03;5030136;28;20048;-85
2021/06/09 06:01:38;;;;;;;38.70;27.40;;;20.90;84.60;;;18.87;85.77;101075.94;5031418;28;20387;-90
2021/06/09 06:04:17;;;;;;;38.72;29.70;;;21.50;82.80;;;19.08;85.28;101080.19;5029968;28;20053;-84
2021/06/09 06:06:57;;;;;;;39.75;29.10;;;22.10;80.40;;;19.28;84.65;101080.81;5030654;28;20048;-86
2021/06/09 06:09:35;;;;;;;39.60;28.30;;;22.70;78.60;;;19.46;83.89;101079.16;5031076;28;20053;-86
2021/06/09 06:12:21;;;;;;;37.42;26.45;;;23.20;76.50;;;19.63;83.13;101085.75;5025957;28;20411;-85
2021/06/09 06:14:59;;;;;;;37.67;26.25;;;23.70;74.40;;;19.82;83.01;101089.38;5029024;28;20053;-85
2021/06/09 06:17:40;;;;;;;36.08;26.67;;;24.10;73.20;;;19.99;83.07;101092.34;5030298;28;20072;-85
2021/06/09 06:20:25;;;;;;;36.13;26.60;;;24.50;72.40;;;20.15;81.82;101090.81;5028682;28;20049;-84
2021/06/09 06:23:01;;;;;;;32.53;24.85;;;24.80;70.00;;;20.30;81.23;101088.47;5009823;28;20478;-84
2021/06/09 06:25:41;;;;;;;33.75;24.60;;;25.10;68.40;;;20.41;81.13;101085.97;5011042;28;20053;-84
2021/06/09 06:28:15;;;;;;;35.53;23.65;;;25.30;67.80;;;20.52;80.75;101090.69;5011283;28;20109;-83
2021/06/09 06:30:50;;;;;;;32.03;24.23;;;25.50;66.80;;;20.61;80.63;101083.78;5009298;28;20552;-84
2021/06/09 06:33:26;;;;;;;31.30;22.35;;;25.60;66.00;;;20.63;80.19;101081.63;5010634;28;20049;-84
2021/06/09 06:36:12;;;;;;;28.02;22.20;;;25.30;66.60;;;20.62;80.37;101085.47;5011151;28;20375;-84
2021/06/09 06:38:47;;;;;;;30.08;23.35;;;24.50;70.10;;;20.58;80.15;101099.97;5010974;28;20041;-84
2021/06/09 06:41:29;;;;;;;32.00;23.20;;;23.90;72.70;;;20.55;80.66;101084.69;5011089;28;20053;-83
2021/06/09 06:44:11;;;;;;;34.17;24.17;;;23.60;74.30;;;20.48;80.31;101087.56;5025876;23;20144;-79
2021/06/09 06:46:51;;;;;;;32.50;24.50;;;23.30;74.90;;;20.46;80.56;101097.19;4989946;28;20522;-78
2021/06/09 06:49:30;;;;;;;42.92;28.05;;;23.10;76.00;;;20.47;80.08;101093.34;4990814;28;20046;-79
2021/06/09 06:52:09;;;;;;;39.65;26.85;;;23.00;76.30;;;20.44;80.48;101091.03;4991149;28;20089;-80
2021/06/09 06:54:47;;;;;;;41.15;28.80;;;22.90;77.20;;;20.42;80.91;101087.69;4990954;28;20050;-80
2021/06/09 06:57:24;;;;;;;44.75;29.83;;;22.80;78.00;;;20.40;80.69;101092.59;4990805;28;20039;-79
2021/06/09 07:00:00;;;;;;;45.83;29.50;;;22.70;78.10;;;20.43;80.66;101097.66;4990826;28;20050;-79
2021/06/09 07:02:35;;;;;;;41.38;29.10;;;22.60;78.30;;;20.46;78.99;101091.66;4990940;28;20042;-79
2021/06/09 07:05:14;;;;;;;43.17;30.23;;;22.60;77.00;;;20.45;79.30;101092.75;4990922;28;20042;-79
2021/06/09 07:07:53;;;;;;;42.92;28.92;;;22.60;77.60;;;20.45;79.72;101092.75;4991014;28;20042;-78
2021/06/09 07:10:32;;;;;;;41.55;30.13;;;22.60;78.00;;;20.47;79.48;101096.13;4990404;28;20050;-78
2021/06/09 07:13:10;;;;;;;39.95;29.35;;;22.50;78.10;;;20.49;80.13;101099.47;4990180;28;20097;-78
2021/06/09 07:15:50;;;;;;;38.17;28.73;;;22.50;78.70;;;20.48;80.10;101103.31;4990585;28;20038;-78
2021/06/09 07:18:29;;;;;;;41.20;28.35;;;22.50;78.60;;;20.49;80.68;101092.03;4990060;28;20100;-78
2021/06/09 07:21:05;;;;;;;38.85;26.35;;;22.50;79.00;;;20.56;81.27;101103.00;4988911;28;20522;-79
2021/06/09 07:23:44;;;;;;;44.35;28.35;;;22.50;79.80;;;20.62;81.33;101096.53;4990702;28;20039;-79
2021/06/09 07:26:21;;;;;;;38.22;26.05;;;22.60;80.00;;;20.63;79.91;101100.97;4990007;28;20498;-79
2021/06/09 07:29:01;;;;;;;34.67;25.17;;;22.50;78.70;;;20.64;79.51;101110.13;4990739;28;20392;-78
2021/06/09 07:31:43;;;;;;;36.45;25.77;;;22.60;78.60;;;20.68;80.05;101105.81;4990330;28;20054;-79
2021/06/09 07:34:19;;;;;;;35.92;25.48;;;22.60;78.60;;;20.72;79.84;101097.88;4990511;28;20042;-78
2021/06/09 07:36:59;;;;;;;34.55;24.95;;;22.60;78.80;;;20.75;80.57;101100.16;4990335;28;20046;-79
2021/06/09 07:39:42;;;;;;;33.50;24.48;;;22.60;79.70;;;20.79;81.25;101106.91;4988290;28;20053;-79
2021/06/09 07:42:20;;;;;;;31.95;23.95;;;22.70;80.30;;;20.82;81.04;101103.66;4990467;28;20077;-79
2021/06/09 07:45:02;;;;;;;34.88;25.42;;;22.70;79.90;;;20.84;78.18;101104.25;4989890;28;20372;-78
2021/06/09 07:47:48;;;;;;;36.13;25.38;;;22.70;77.40;;;20.86;79.66;101102.94;4990270;28;20499;-79
2021/06/09 07:50:35;;;;;;;33.92;24.63;;;22.70;79.00;;;20.86;80.11;101107.63;4980368;28;20408;-79
2021/06/09 07:53:16;;;;;;;35.42;25.13;;;22.80;78.90;;;20.91;77.00;101099.47;4970895;28;20121;-80
2021/06/09 07:55:55;;;;;;;32.60;22.90;;;22.80;77.00;;;20.91;78.13;101099.47;4989215;28;20524;-81
2021/06/09 07:58:34;;;;;;;37.10;26.38;;;22.80;77.90;;;20.91;77.27;101096.69;4990211;28;20046;-81
2021/06/09 08:01:10;;;;;;;40.33;25.45;;;22.80;77.10;;;20.92;79.43;101095.59;4989173;28;20046;-82
2021/06/09 08:03:50;;;;;;;44.00;26.83;;;22.80;78.60;;;21.01;81.90;101105.25;4988973;28;20046;-81
2021/06/09 08:06:24;;;;;;;37.13;26.42;;;22.80;80.70;;;21.03;79.27;101100.31;4989617;28;20435;-81
2021/06/09 08:09:02;;;;;;;37.25;25.75;;;22.90;78.80;;;21.07;78.11;101098.75;4990146;28;20044;-81
2021/06/09 08:11:42;;;;;;;35.05;26.35;;;22.90;77.80;;;21.15;81.31;101085.63;4989447;28;20050;-82
2021/06/09 08:14:21;;;;;;;31.65;23.52;;;23.00;79.80;;;21.20;80.08;101094.06;4989487;28;20054;-81
2021/06/09 08:17:00;;;;;;;36.53;25.27;;;23.00;79.10;;;21.19;79.51;101084.06;4988315;28;20057;-85
2021/06/09 08:19:37;;;;;;;38.80;26.15;;;23.10;79.00;;;21.23;79.18;101085.28;4989575;28;20051;-82
2021/06/09 08:22:13;;;;;;;35.35;26.92;;;23.10;78.60;;;21.29;79.77;101087.06;4956983;28;20065;-79
2021/06/09 08:24:51;;;;;;;38.22;26.45;;;23.10;78.60;;;21.27;77.46;101081.78;4987640;28;20042;-79
2021/06/09 08:27:26;;;;;;;37.22;25.55;;;23.20;77.80;;;21.24;78.38;101079.47;4991766;28;20045;-79
2021/06/09 08:30:03;;;;;;;43.65;25.73;;;23.10;77.60;;;21.20;78.22;101086.59;4989231;28;20494;-79
2021/06/09 08:32:41;;;;;;;37.65;27.35;;;23.10;77.70;;;21.18;76.47;101087.94;4989997;28;20034;-79
2021/06/09 08:35:31;;;;;;;35.70;24.92;;;23.10;76.60;;;21.13;76.58;101093.34;4988360;28;20054;-79
2021/06/09 08:38:09;;;;;;;37.22;26.20;;;23.00;76.50;;;21.09;76.92;101096.59;4989640;28;20046;-79
2021/06/09 08:40:48;;;;;;;32.38;23.33;;;23.00;76.70;;;21.09;78.71;101091.06;4987439;28;20134;-79
2021/06/09 08:43:23;;;;;;;25.73;18.67;;;23.00;78.10;;;21.11;80.31;101099.09;4989546;28;20498;-79
2021/06/09 08:46:02;;;;;;;33.72;24.25;;;23.00;79.20;;;21.25;82.68;101094.19;4977932;28;20042;-79
2021/06/09 08:48:42;;;;;;;42.03;25.55;;;23.10;82.10;;;21.27;78.24;101094.78;4989318;28;20061;-79
2021/06/09 08:51:22;;;;;;;34.17;25.08;;;23.20;78.20;;;21.24;75.95;101093.31;4986799;28;20050;-79
2021/06/09 08:54:03;;;;;;;34.65;22.95;;;23.20;76.40;;;21.23;75.96;101096.34;4998795;28;20530;-79
2021/06/09 08:56:50;;;;;;;43.85;28.65;;;23.10;76.30;;;21.28;74.55;101085.38;5002017;28;20450;-80
2021/06/09 08:59:31;;;;;;;35.75;23.63;;;23.10;75.80;;;21.26;75.55;101093.09;4997611;28;20061;-79
2021/06/09 09:02:08;;;;;;;40.00;20.27;;;23.10;76.30;;;21.31;78.43;101089.59;4989266;28;20077;-80
2021/06/09 09:04:47;;;;;;;42.20;25.10;;;23.20;78.40;;;21.42;75.20;101095.13;4988914;28;20050;-79
2021/06/09 09:07:29;;;;;;;33.92;24.00;;;23.20;76.10;;;21.44;75.53;101092.16;4992645;28;20062;-79
2021/06/09 09:10:14;;;;;;;35.28;22.10;;;23.30;75.80;;;21.52;79.01;101085.41;4988635;28;20061;-79
2021/06/09 09:12:46;;;;;;;44.60;22.65;;;23.30;78.40;;;21.60;74.91;101096.09;4991114;28;20069;-80
2021/06/09 09:15:22;;;;;;;29.85;18.02;;;23.40;75.80;;;21.58;75.19;101087.19;5004906;28;20041;-80
2021/06/09 09:18:05;;;;;;;33.00;21.23;;;23.40;75.80;;;21.57;77.52;101094.66;4993064;28;20081;-79
2021/06/09 09:20:46;;;;;;;26.60;18.08;;;23.40;77.20;;;21.58;74.04;101098.25;4973950;28;20043;-80
2021/06/09 09:23:31;;;;;;;34.80;22.05;;;23.40;74.10;;;21.59;73.31;101094.38;4973318;28;20058;-81
2021/06/09 09:26:30;;;;;;;41.70;23.52;;;23.50;74.10;;;21.61;74.54;101098.63;4989597;28;20538;-80
2021/06/09 09:29:23;;;;;;;36.65;24.58;;;23.40;74.40;;;21.65;71.92;101104.53;4970603;28;20055;-78
2021/06/09 09:32:09;;;;;;;34.85;25.33;;;23.50;72.90;;;21.59;72.47;101105.47;4990034;28;20050;-77
2021/06/09 09:34:48;;;;;;;32.22;23.52;;;23.40;72.10;;;21.60;73.18;101104.41;4991554;28;20514;-77
2021/06/09 09:37:31;;;;;;;31.02;22.98;;;23.40;73.70;;;21.58;70.73;101103.81;4993612;28;20057;-79
2021/06/09 09:40:17;;;;;;;31.65;23.13;;;23.40;71.80;;;21.55;69.87;101112.59;4991847;28;20042;-78
2021/06/09 09:42:56;;;;;;;26.23;18.98;;;23.40;71.30;;;21.54;71.53;101108.16;4991447;28;20689;-78
2021/06/09 09:45:37;;;;;;;27.92;19.95;;;23.40;72.90;;;21.50;73.59;101104.19;4990487;28;20073;-78
2021/06/09 09:48:23;;;;;;;34.33;23.05;;;23.40;75.00;;;21.47;74.81;101111.88;4993976;28;20498;-78
2021/06/09 09:51:01;;;;;;;31.33;20.85;;;23.40;75.00;;;21.51;75.20;101103.09;5000554;28;20046;-78
2021/06/09 09:53:39;;;;;;;35.22;24.35;;;23.40;76.70;;;21.53;73.27;101112.00;4992501;28;20046;-78
2021/06/09 09:56:22;;;;;;;38.50;26.83;;;23.40;74.10;;;21.50;71.04;101118.03;4997757;28;20502;-77
2021/06/09 09:59:03;;;;;;;35.40;26.67;;;23.30;71.90;;;21.45;71.24;101115.97;4971968;28;20430;-80
2021/06/09 10:01:41;;;;;;;;;;;23.30;72.40;;;21.43;71.59;101107.88;4978861;28;20042;-78
2021/06/09 10:04:27;;;;;;;42.05;26.35;;;23.30;72.50;;;21.45;72.58;101104.91;4991913;28;19984;-77
2021/06/09 10:07:09;;;;;;;37.53;25.23;;;23.30;73.30;;;21.52;72.64;101107.56;4992049;28;20100;-77
2021/06/09 10:09:47;;;;;;;36.00;24.92;;;23.40;73.80;;;21.53;72.80;101106.44;4991915;28;20042;-76
2021/06/09 10:12:30;;;;;;;45.33;29.88;;;23.40;73.20;;;21.50;71.23;101104.19;4998410;28;20052;-77
2021/06/09 10:15:08;;;;;;;40.17;28.33;;;23.40;72.20;;;21.44;70.93;101106.00;5009971;28;20045;-76
2021/06/09 10:17:46;;;;;;;37.15;25.70;;;23.30;71.70;;;21.42;71.95;101108.97;4996516;28;20593;-76
2021/06/09 10:20:39;;;;;;;37.75;27.83;;;23.30;72.30;;;21.48;75.45;101109.97;4997473;28;20064;-77
2021/06/09 10:23:44;;;;;;;39.03;26.50;;;23.40;75.60;;;21.61;70.34;101103.28;5014294;28;20442;-76
2021/06/09 10:26:24;;;;;;;31.80;22.52;;;23.50;73.00;;;21.70;70.37;101095.47;5009267;28;20073;-77
2021/06/09 10:29:18;;;;;;;28.00;21.77;;;23.50;72.00;;;21.75;70.99;101104.72;4991876;28;20030;-77
2021/06/09 10:31:58;;;;;;;32.80;23.92;;;23.60;72.50;;;21.69;69.28;101105.72;4992258;28;20038;-77
2021/06/09 10:34:38;;;;;;;29.17;21.27;;;23.50;70.40;;;21.68;70.71;101106.78;5009102;28;20050;-77
2021/06/09 10:37:16;;;;;;;26.27;18.20;;;23.50;71.90;;;21.61;70.22;101095.84;4980272;28;20049;-76
2021/06/09 10:39:54;;;;;;;32.38;21.13;;;23.50;71.50;;;21.57;69.46;101096.56;4978758;28;20419;-77
2021/06/09 10:42:32;;;;;;;26.20;20.65;;;23.40;70.80;;;21.54;70.58;101102.63;4993036;28;20057;-76
2021/06/09 10:45:14;;;;;;;24.52;19.33;;;23.30;71.30;;;21.51;71.22;101103.91;4999747;28;20054;-76
2021/06/09 10:47:50;;;;;;;23.50;18.40;;;23.40;72.30;;;21.54;71.16;101102.63;5010866;28;20049;-77
2021/06/09 10:50:29;;;;;;;23.65;19.00;;;23.40;72.40;;;21.59;70.72;101098.03;4983515;28;20046;-76
2021/06/09 10:53:07;;;;;;;21.38;17.30;;;23.40;72.10;;;21.63;70.28;101095.63;4997317;28;20122;-77
2021/06/09 10:55:45;;;;;;;21.23;15.95;;;23.50;71.20;;;21.69;68.43;101100.16;4992514;28;20042;-76